Time;durP1;ratioP1;P1;durP2;ratioP2;P2;SDS_P1;SDS_P2;PMS_P1;PMS_P2;Temp;Humidity;BMP_temperature;BMP_pressure;BME280_temperature;BME280_humidity;BME280_pressure;Samples;Min_cycle;Max_cycle;Signal;HPM_P1;HPM_P2
2022/07/01 15:22:34;;;;;;;2.58;2.47;;;39.30;41.20;;;27.05;39.25;95981.91;4984424;28;20324;-50
2022/07/01 15:24:59;;;;;;;1.70;1.60;;;38.60;36.60;;;26.97;39.28;95975.50;4965717;28;20613;-47
2022/07/01 15:27:25;;;;;;;2.53;2.33;;;38.40;34.40;;;26.44;40.44;95975.19;4949458;28;20023;-47
2022/07/01 15:29:53;;;;;;;1.88;1.70;;;37.50;33.60;;;26.22;42.77;95978.59;5009681;28;20059;-51
2022/07/01 15:32:19;;;;;;;2.78;2.67;;;36.70;33.80;;;26.38;41.05;95981.28;4944557;29;20027;-51
2022/07/01 15:34:51;;;;;;;2.60;2.50;;;38.10;32.00;;;26.24;40.21;95973.56;4929340;29;20038;-48
2022/07/01 15:37:17;;;;;;;2.78;2.67;;;39.10;30.20;;;26.52;40.04;95979.69;4961845;28;20034;-52
2022/07/01 15:39:46;;;;;;;3.60;2.63;;;39.80;28.90;;;27.11;40.66;95985.94;4965471;28;20027;-48
2022/07/01 15:42:17;;;;;;;3.90;3.35;;;41.40;27.90;;;27.81;38.33;95981.34;4947195;28;20026;-47
2022/07/01 15:44:45;;;;;;;3.50;3.20;;;42.70;26.80;;;28.19;36.95;95985.84;4964105;28;20350;-49
2022/07/01 15:49:58;;;;;;;2.30;2.20;;;44.90;24.40;;;27.22;38.80;95991.63;4964069;28;20034;-48
2022/07/01 15:52:28;;;;;;;1.73;1.63;;;42.90;24.60;;;26.62;39.27;95983.00;4965000;28;20030;-49
2022/07/01 15:54:56;;;;;;;2.20;2.10;;;40.80;25.40;;;26.34;41.16;95988.59;4961234;28;20435;-47
2022/07/01 15:57:22;;;;;;;2.92;2.75;;;39.40;26.40;;;26.77;40.25;95982.16;4951127;28;20039;-53
2022/07/01 15:59:48;;;;;;;3.03;2.92;;;40.50;25.90;;;27.28;40.20;95984.72;4950197;28;20038;-50
2022/07/01 16:02:14;;;;;;;3.17;2.97;;;41.90;25.30;;;27.79;38.10;95980.94;4930300;28;20031;-50
2022/07/01 16:04:49;;;;;;;3.47;3.25;;;43.30;24.40;;;27.78;36.96;95973.88;4959320;28;20114;-49
2022/07/01 16:07:22;;;;;;;3.17;3.00;;;44.40;23.50;;;28.22;35.94;95973.38;4952047;28;20057;-51
2022/07/01 16:10:02;;;;;;;4.40;4.18;;;45.10;23.20;;;27.96;36.42;95968.69;4948002;28;20023;-51
2022/07/01 16:12:32;;;;;;;3.70;3.50;;;45.70;22.50;;;28.20;37.10;95975.69;4953936;28;20023;-50
2022/07/01 16:15:02;;;;;;;4.40;4.03;;;46.10;21.40;;;28.32;36.63;95970.00;4962391;28;20095;-52
2022/07/01 16:17:34;;;;;;;2.35;2.25;;;46.30;21.00;;;28.18;36.72;95972.53;4983909;28;20042;-56
2022/07/01 16:20:07;;;;;;;2.20;2.10;;;44.90;21.50;;;27.32;38.11;95977.34;5016145;28;20050;-54
2022/07/01 16:22:38;;;;;;;3.25;2.90;;;43.40;22.30;;;27.36;39.24;95975.50;4992781;28;20127;-52
2022/07/01 16:25:05;;;;;;;2.30;2.10;;;43.80;22.20;;;27.53;37.72;95976.16;5025085;28;20435;-48
2022/07/01 16:27:35;;;;;;;2.38;2.28;;;44.00;21.80;;;27.30;39.12;95973.44;4974433;28;20030;-54
2022/07/01 16:30:02;;;;;;;2.55;2.40;;;42.70;22.40;;;26.73;37.27;95976.63;4975054;28;20398;-55
2022/07/01 16:32:30;;;;;;;2.67;2.55;;;42.70;22.00;;;27.29;37.53;95975.34;4993080;28;20020;-51
2022/07/01 16:34:57;;;;;;;2.85;2.65;;;43.50;21.70;;;27.71;38.00;95971.00;4990396;28;20127;-47
2022/07/01 16:37:31;;;;;;;3.08;2.72;;;44.40;21.40;;;28.02;36.76;95975.44;4971408;28;20100;-47
2022/07/01 16:40:11;;;;;;;3.60;3.42;;;44.60;21.40;;;27.59;38.20;95977.44;4981435;28;20036;-55
2022/07/01 16:43:06;;;;;;;2.05;1.95;;;45.40;21.10;;;27.64;39.36;95977.94;4969118;28;20643;-46
2022/07/01 16:45:42;;;;;;;2.05;1.95;;;44.10;21.50;;;27.33;36.87;95978.19;4934817;28;20035;-48
2022/07/01 16:48:09;;;;;;;1.55;1.45;;;42.20;22.10;;;26.35;39.57;95979.25;4938275;29;20027;-47
2022/07/01 16:50:47;;;;;;;1.60;1.50;;;40.30;23.00;;;25.44;40.20;95977.47;4984971;28;20046;-48
2022/07/01 16:53:20;;;;;;;2.10;1.90;;;38.30;24.10;;;25.13;43.00;95979.00;4932378;28;20033;-46
2022/07/01 16:55:47;;;;;;;2.40;2.30;;;37.40;25.30;;;25.37;41.68;95981.59;4932011;29;20680;-48
2022/07/01 16:58:28;;;;;;;2.83;1.85;;;38.90;24.50;;;25.87;41.31;95984.00;4943487;29;20117;-51
2022/07/01 17:00:58;;;;;;;2.30;2.20;;;40.50;23.80;;;26.40;39.43;95987.19;4930923;29;20058;-49
2022/07/01 17:03:24;;;;;;;2.45;2.08;;;41.90;22.80;;;26.84;38.98;95982.28;4947087;29;20400;-50
2022/07/01 17:05:56;;;;;;;2.75;2.55;;;43.20;22.10;;;26.95;38.71;95986.03;4949249;29;20023;-47
2022/07/01 17:08:26;;;;;;;4.13;3.45;;;44.00;21.40;;;26.99;38.24;95992.34;4949740;29;20035;-47
2022/07/01 17:10:58;;;;;;;2.40;2.30;;;43.00;21.50;;;26.43;40.12;95989.19;4938372;29;20355;-50
2022/07/01 17:13:27;;;;;;;2.08;1.98;;;43.60;21.20;;;26.80;41.67;95986.09;4930165;28;20085;-47
2022/07/01 17:15:55;;;;;;;1.73;1.63;;;43.90;21.20;;;26.52;39.15;95984.34;4931420;29;20433;-50
2022/07/01 17:18:27;;;;;;;2.40;1.30;;;43.00;20.90;;;25.79;40.20;95988.47;4938349;29;20093;-49
2022/07/01 17:21:02;;;;;;;1.42;1.30;;;40.90;21.80;;;25.17;41.23;95987.28;4950349;28;20046;-47
2022/07/01 17:23:49;;;;;;;1.45;1.35;;;38.60;23.20;;;24.69;44.21;95990.63;5015114;28;20113;-45
2022/07/01 17:26:38;;;;;;;2.10;1.10;;;36.30;25.20;;;24.04;45.90;95989.00;4933953;29;20035;-47
2022/07/01 17:29:14;;;;;;;1.10;1.10;;;34.40;27.00;;;23.50;47.61;95989.97;4950564;29;20019;-46
2022/07/01 17:32:06;;;;;;;2.03;1.63;;;32.90;28.40;;;22.89;50.55;95982.44;4948850;29;20435;-46
2022/07/01 17:34:32;;;;;;;1.88;1.13;;;31.50;29.80;;;22.34;51.01;95995.19;4948223;28;20506;-51
2022/07/01 17:37:02;;;;;;;1.38;1.20;;;30.40;30.80;;;21.89;52.90;95995.72;4927875;28;20027;-51
2022/07/01 17:39:40;;;;;;;1.45;1.35;;;29.50;32.60;;;21.34;53.77;95991.13;4946668;28;20033;-45
2022/07/01 17:42:14;;;;;;;1.35;1.25;;;28.60;33.80;;;21.00;55.20;95992.00;4947665;29;20035;-47
2022/07/01 17:44:44;;;;;;;8.13;5.53;;;27.80;35.20;;;20.55;55.76;95987.72;4921746;29;20019;-48
2022/07/01 17:47:17;;;;;;;2.85;1.20;;;27.10;36.10;;;20.26;56.93;95985.63;4945585;29;20042;-47
2022/07/01 17:49:45;;;;;;;0.90;0.80;;;26.40;37.20;;;19.98;57.65;95979.69;5015509;28;20023;-45
2022/07/01 17:52:15;;;;;;;0.98;0.80;;;25.90;38.70;;;19.71;58.58;95979.91;5014129;28;20117;-45
2022/07/01 17:54:42;;;;;;;1.05;0.98;;;25.40;39.00;;;19.54;59.39;95984.13;4916594;29;20019;-48
2022/07/01 17:57:09;;;;;;;1.58;0.73;;;25.00;40.00;;;19.22;58.33;95982.56;4930786;28;20039;-44
2022/07/01 17:59:36;;;;;;;1.35;0.80;;;24.60;40.50;;;19.02;59.89;95988.47;4940760;28;20717;-46
2022/07/01 18:02:04;;;;;;;1.45;0.90;;;24.30;41.20;;;18.82;59.99;95987.06;4928609;29;20039;-51
2022/07/01 18:04:31;;;;;;;0.60;0.60;;;23.90;41.90;;;18.64;60.88;95986.91;4929073;29;20385;-51
2022/07/01 18:06:58;;;;;;;0.90;0.90;;;23.60;42.50;;;18.43;61.75;95991.19;4947214;28;20605;-51
2022/07/01 18:09:25;;;;;;;0.80;0.70;;;23.30;43.60;;;18.18;62.71;95996.03;4941403;28;20027;-48
2022/07/01 18:12:35;;;;;;;1.02;0.80;;;23.10;43.50;;;18.02;64.01;95995.56;4943996;29;20034;-51
2022/07/01 18:15:12;;;;;;;0.80;0.80;;;22.80;44.40;;;17.82;65.16;96003.28;4969117;28;20064;-48
2022/07/01 18:18:03;;;;;;;0.80;0.80;;;22.60;45.00;;;17.65;66.49;96004.66;4995761;28;20033;-49
2022/07/01 18:20:55;;;;;;;0.90;0.90;;;22.40;45.80;;;17.43;67.25;96021.47;5008563;28;20408;-47
2022/07/01 18:23:42;;;;;;;1.10;0.70;;;22.20;46.40;;;17.26;68.05;96016.66;5010217;28;20396;-47
2022/07/01 18:26:14;;;;;;;1.10;1.00;;;21.90;46.90;;;17.13;67.75;96016.63;5005468;28;20408;-49
2022/07/01 18:28:56;;;;;;;1.10;0.80;;;21.70;47.20;;;16.99;68.74;96020.09;4989088;28;20026;-47
2022/07/01 18:31:32;;;;;;;1.37;0.70;;;21.60;47.80;;;16.78;66.70;96016.91;5004868;28;20033;-51
2022/07/01 18:34:31;;;;;;;0.60;0.60;;;21.40;47.90;;;16.76;67.73;96018.31;4989623;28;20052;-50
2022/07/01 18:37:02;;;;;;;2.78;0.80;;;21.40;48.20;;;16.72;66.47;96017.28;5009323;28;20025;-52
2022/07/01 18:39:27;;;;;;;1.00;0.70;;;21.20;48.00;;;16.66;68.43;96028.09;5005221;28;20427;-49
2022/07/01 18:41:59;;;;;;;2.95;0.70;;;21.10;48.50;;;16.74;70.07;96028.53;5009336;28;20037;-52
2022/07/01 18:44:24;;;;;;;0.95;0.73;;;21.20;49.40;;;16.75;68.43;96035.50;5024566;28;20044;-52
2022/07/01 18:46:56;;;;;;;1.10;1.00;;;21.10;49.30;;;16.78;69.94;96026.88;5010227;28;20033;-47
2022/07/01 18:49:25;;;;;;;0.60;0.60;;;21.10;49.90;;;16.82;70.92;96039.44;5000675;28;20025;-47
2022/07/01 18:51:53;;;;;;;0.95;0.70;;;21.20;50.10;;;16.81;71.24;96029.78;4996583;28;20069;-50
2022/07/01 18:54:26;;;;;;;0.90;0.80;;;21.20;50.40;;;16.80;70.36;96030.88;4992133;28;20025;-49
2022/07/01 18:56:53;;;;;;;1.05;0.90;;;21.20;50.80;;;16.76;71.43;96031.75;4989375;28;20079;-47
2022/07/01 18:59:22;;;;;;;1.35;0.90;;;21.10;50.60;;;16.75;70.03;96038.19;5006487;28;20032;-47
2022/07/01 19:01:48;;;;;;;0.95;0.77;;;21.10;50.90;;;16.75;69.76;96030.13;5009724;28;20033;-52
2022/07/01 19:04:15;;;;;;;0.77;0.73;;;21.00;51.00;;;16.76;71.99;96037.13;5008157;28;20503;-49
2022/07/01 19:06:41;;;;;;;1.40;0.70;;;21.00;51.40;;;16.67;65.67;96036.97;5000766;28;20055;-48
2022/07/01 19:09:16;;;;;;;1.85;0.75;;;21.00;51.10;;;16.67;68.37;96026.19;5003575;28;20194;-47
2022/07/01 19:11:42;;;;;;;1.20;0.70;;;20.90;51.20;;;16.58;67.93;96028.78;4998005;28;20025;-47
2022/07/01 19:14:10;;;;;;;1.45;0.80;;;20.90;51.70;;;16.54;69.28;96027.75;5004022;28;20083;-48
2022/07/01 19:16:36;;;;;;;0.55;0.55;;;20.80;51.30;;;16.49;68.76;96037.78;4993768;28;20029;-50
2022/07/01 19:19:02;;;;;;;3.08;0.80;;;20.70;51.30;;;16.42;69.49;96035.44;5017375;28;20173;-49
2022/07/01 19:21:28;;;;;;;1.38;0.60;;;20.60;51.60;;;16.32;68.71;96033.69;5002739;28;20045;-50
2022/07/01 19:23:54;;;;;;;0.52;0.50;;;20.50;51.70;;;16.19;69.64;96039.78;5000903;28;20028;-52
2022/07/01 19:26:21;;;;;;;2.38;0.70;;;20.40;51.90;;;16.03;70.38;96041.06;5005779;28;20021;-48
2022/07/01 19:28:49;;;;;;;2.03;1.58;;;20.20;52.00;;;15.83;72.40;96044.81;5006338;28;20025;-48
2022/07/01 19:31:15;;;;;;;1.30;0.98;;;20.10;52.40;;;15.62;72.88;96046.88;5008979;28;20119;-47
2022/07/01 19:33:43;;;;;;;0.88;0.80;;;20.00;52.70;;;15.54;73.52;96053.66;5004871;28;20483;-47
2022/07/01 19:36:09;;;;;;;0.70;0.70;;;19.80;53.00;;;15.40;74.96;96055.44;5004044;28;20112;-47
2022/07/01 19:38:38;;;;;;;0.88;0.75;;;19.70;53.30;;;15.25;75.13;96054.47;4989986;28;20109;-47
2022/07/01 19:41:03;;;;;;;0.77;0.73;;;19.50;53.80;;;15.11;75.91;96058.91;4990462;28;20442;-47
2022/07/01 19:43:29;;;;;;;1.10;0.75;;;19.30;54.00;;;14.96;76.24;96065.19;4991325;28;20017;-49
2022/07/01 19:45:58;;;;;;;0.80;0.80;;;19.20;54.30;;;14.84;76.68;96058.59;5005711;28;20029;-49
2022/07/01 19:48:24;;;;;;;2.17;0.95;;;19.00;54.60;;;14.69;78.01;96068.34;4988266;28;20072;-48
2022/07/01 19:50:50;;;;;;;2.22;0.90;;;18.90;55.10;;;14.57;78.02;96070.56;4981225;28;20022;-48
2022/07/01 19:53:15;;;;;;;0.95;0.70;;;18.70;55.30;;;14.41;79.05;96064.47;4988696;28;20072;-48
2022/07/01 19:55:41;;;;;;;0.80;0.80;;;18.60;55.70;;;14.29;79.71;96074.72;4996317;28;20107;-48
2022/07/01 19:58:10;;;;;;;1.45;0.80;;;18.50;55.90;;;14.18;79.35;96082.00;5000360;28;20113;-49
2022/07/01 20:00:39;;;;;;;1.20;0.77;;;18.40;56.20;;;14.06;79.59;96076.16;5006167;28;20028;-47
2022/07/01 20:03:05;;;;;;;4.43;0.80;;;18.30;56.60;;;13.96;80.63;96079.69;4984587;28;20040;-50
2022/07/01 20:05:31;;;;;;;1.73;0.77;;;18.10;56.70;;;13.84;81.26;96092.56;5004825;28;20388;-51
2022/07/01 20:08:00;;;;;;;1.55;0.95;;;18.00;57.00;;;13.73;81.87;96088.34;4992419;28;20029;-50
2022/07/01 20:10:26;;;;;;;0.85;0.80;;;17.90;57.40;;;13.61;82.37;96085.94;5000063;28;20468;-49
2022/07/01 20:12:55;;;;;;;1.80;0.80;;;17.80;57.60;;;13.51;82.14;96085.97;4999591;28;20030;-50
2022/07/01 20:15:21;;;;;;;2.25;0.80;;;17.70;57.80;;;13.38;82.97;96093.47;4995219;28;20047;-52
2022/07/01 20:17:50;;;;;;;1.10;0.70;;;17.60;58.00;;;13.24;83.55;96089.72;4994795;28;20072;-48
2022/07/01 20:20:16;;;;;;;0.70;0.65;;;17.50;58.30;;;13.19;84.24;96090.53;5008639;28;20124;-49
2022/07/01 20:22:43;;;;;;;0.85;0.70;;;17.40;58.40;;;13.09;84.42;96093.19;4975578;28;20026;-48
2022/07/01 20:25:10;;;;;;;2.35;0.98;;;17.30;58.60;;;13.03;84.53;96098.81;5003444;28;20017;-48
2022/07/01 20:27:45;;;;;;;1.38;1.00;;;17.20;58.80;;;12.95;84.56;96084.09;5005210;28;20052;-47
2022/07/01 20:30:11;;;;;;;1.27;1.00;;;17.10;59.30;;;12.83;86.17;96096.94;4999013;28;20108;-47
2022/07/01 20:32:40;;;;;;;1.55;0.82;;;17.10;59.40;;;12.76;86.17;96091.84;4991411;28;20041;-52
2022/07/01 20:35:07;;;;;;;0.80;0.80;;;17.00;59.60;;;12.69;86.97;96085.94;4991092;28;20048;-48
2022/07/01 20:37:33;;;;;;;2.28;0.70;;;16.90;59.70;;;12.62;87.60;96088.88;5003401;28;20481;-49
2022/07/01 20:40:00;;;;;;;0.60;0.60;;;16.80;59.90;;;12.57;86.95;96086.22;4914114;28;235114;-50
2022/07/01 20:42:26;;;;;;;3.67;1.10;;;16.80;60.20;;;12.49;87.41;96081.38;4916584;29;20035;-50
2022/07/01 20:44:58;;;;;;;1.42;1.10;;;16.70;60.40;;;12.43;87.58;96074.41;4912244;29;20437;-47
2022/07/01 20:47:30;;;;;;;2.15;0.98;;;16.60;60.90;;;12.38;87.67;96085.91;4913506;29;20446;-47
2022/07/01 20:49:59;;;;;;;2.65;0.77;;;16.60;61.20;;;12.32;87.67;96076.25;4913638;29;20027;-48
2022/07/01 20:52:26;;;;;;;1.98;0.88;;;16.40;61.20;;;12.24;88.09;96084.78;4926115;28;20416;-48
2022/07/01 20:54:55;;;;;;;1.00;0.90;;;16.50;61.30;;;12.19;89.00;96085.56;4931009;29;20039;-47
2022/07/01 20:57:21;;;;;;;2.42;1.02;;;16.40;61.60;;;12.15;89.37;96091.69;4926437;29;20028;-49
2022/07/01 20:59:47;;;;;;;2.65;0.73;;;16.30;61.60;;;12.14;89.00;96085.53;4912692;29;20037;-49
2022/07/01 21:02:13;;;;;;;6.72;1.10;;;16.30;61.80;;;12.10;88.86;96091.69;4912699;29;20036;-51
2022/07/01 21:04:42;;;;;;;1.15;1.00;;;16.20;61.90;;;12.04;89.08;96077.50;4912974;29;20063;-47
2022/07/01 21:07:07;;;;;;;1.67;1.20;;;16.20;62.40;;;12.00;89.53;96087.09;4964697;28;20029;-50
2022/07/01 21:09:34;;;;;;;1.05;0.95;;;16.10;62.40;;;11.93;90.16;96089.19;4911407;29;20493;-52
2022/07/01 21:12:03;;;;;;;2.35;1.27;;;16.00;62.50;;;11.87;90.46;96093.69;4913238;28;20498;-53
2022/07/01 21:14:30;;;;;;;1.30;1.20;;;16.00;62.80;;;11.86;89.80;96092.09;4912720;29;20031;-51
2022/07/01 21:16:56;;;;;;;2.35;1.10;;;16.00;62.80;;;11.80;90.14;96096.59;4994661;28;20036;-48
2022/07/01 21:19:28;;;;;;;2.70;1.30;;;15.90;63.00;;;11.75;91.24;96101.91;4916041;29;20529;-50
2022/07/01 21:21:54;;;;;;;3.45;1.00;;;15.90;63.50;;;11.72;90.99;96105.09;4910088;28;20401;-50
2022/07/01 21:24:27;;;;;;;3.15;1.10;;;15.80;63.30;;;11.68;91.94;96108.53;4931870;29;20027;-52
2022/07/01 21:26:56;;;;;;;4.53;1.40;;;15.80;63.80;;;11.66;92.63;96102.63;4917594;29;20034;-53
2022/07/01 21:29:31;;;;;;;3.67;1.30;;;15.80;63.90;;;11.66;92.38;96106.13;4931572;29;20116;-50
2022/07/01 21:31:58;;;;;;;1.85;1.17;;;15.70;64.20;;;11.60;93.00;96101.03;4930214;28;20050;-50
2022/07/01 21:34:28;;;;;;;3.67;1.50;;;15.70;64.10;;;11.57;92.77;96105.81;4919901;29;20020;-54
2022/07/01 21:37:25;;;;;;;2.10;1.50;;;15.70;64.40;;;11.52;92.46;96100.44;4895718;29;20032;-53
2022/07/01 21:39:52;;;;;;;3.42;1.80;;;15.60;64.50;;;11.49;92.42;96106.28;4914539;29;20035;-56
2022/07/01 21:42:18;;;;;;;3.08;1.67;;;15.60;64.40;;;11.44;92.31;96116.94;4929707;29;20031;-54
2022/07/01 21:44:53;;;;;;;3.45;1.80;;;15.60;64.60;;;11.41;92.91;96113.97;4931039;29;20023;-55
2022/07/01 21:47:20;;;;;;;2.08;1.70;;;15.50;65.00;;;11.37;94.17;96119.00;4930120;29;20058;-54
2022/07/01 21:49:47;;;;;;;2.90;1.88;;;15.50;65.00;;;11.40;94.47;96125.69;4930241;29;20116;-52
2022/07/01 21:52:23;;;;;;;2.00;1.80;;;15.50;65.20;;;11.39;94.17;96121.41;4929515;28;20023;-55
2022/07/01 21:54:50;;;;;;;6.07;1.55;;;15.50;65.70;;;11.34;93.80;96120.34;4929211;29;20543;-54
2022/07/01 21:57:22;;;;;;;2.45;2.25;;;15.40;65.40;;;11.31;94.50;96110.19;4926172;29;20433;-54
2022/07/01 21:59:54;;;;;;;4.22;2.80;;;15.40;65.80;;;11.31;94.93;96115.50;4929294;28;20048;-56
2022/07/01 22:02:27;;;;;;;2.50;2.30;;;15.40;66.20;;;11.31;95.05;96112.00;4929990;29;20031;-53
2022/07/01 22:04:54;;;;;;;4.25;2.97;;;15.30;66.10;;;11.32;94.83;96113.66;4929558;29;20084;-55
2022/07/01 22:07:26;;;;;;;3.97;2.80;;;15.30;66.20;;;11.27;94.62;96109.06;4913585;29;20389;-50
2022/07/01 22:09:52;;;;;;;6.40;3.10;;;15.30;66.40;;;11.26;94.42;96118.13;4929272;29;20037;-48
2022/07/01 22:12:23;;;;;;;5.22;3.30;;;15.30;66.30;;;11.22;94.64;96117.03;4929892;29;20027;-55
2022/07/01 22:15:04;;;;;;;13.18;3.75;;;15.30;66.60;;;11.21;95.34;96111.94;4930543;29;20019;-53
2022/07/01 22:17:39;;;;;;;4.57;3.58;;;15.30;66.90;;;11.20;96.08;96113.81;4913824;29;20106;-56
2022/07/01 22:20:05;;;;;;;6.45;4.03;;;15.30;67.10;;;11.22;96.40;96119.72;4928855;29;20385;-55
